createdAt,value
2023-02-06T00:01:45.986Z,104177.63
2023-02-06T00:04:14.694Z,104171.84
2023-02-06T00:06:43.444Z,104174.13
2023-02-06T00:09:12.295Z,104177.84
2023-02-06T00:11:40.670Z,104172.28
2023-02-06T00:14:10.405Z,104168.78
2023-02-06T00:16:38.672Z,104176.38
2023-02-06T00:19:07.124Z,104173.47
2023-02-06T00:21:35.476Z,104168.16
2023-02-06T00:24:04.921Z,104167.13
2023-02-06T00:26:33.205Z,104163.84
2023-02-06T00:29:01.575Z,104174.94
2023-02-06T00:31:31.249Z,104177.16
2023-02-06T00:33:59.607Z,104179.44
2023-02-06T00:36:28.070Z,104183.31
2023-02-06T00:38:56.637Z,104180.03
2023-02-06T00:41:24.994Z,104180.19
2023-02-06T00:43:53.374Z,104176.47
2023-02-06T00:46:21.978Z,104182.81
2023-02-06T00:48:51.702Z,104184.00
2023-02-06T00:51:20.074Z,104176.19
2023-02-06T00:53:50.980Z,104168.81
2023-02-06T00:56:20.352Z,104172.69
2023-02-06T00:58:49.203Z,104171.06
2023-02-06T01:01:18.649Z,104169.66
2023-02-06T01:03:47.035Z,104174.41
2023-02-06T01:06:16.838Z,104178.91
2023-02-06T01:08:45.264Z,104179.31
2023-02-06T01:11:15.034Z,104182.81
2023-02-06T01:13:44.271Z,104181.13
2023-02-06T01:16:16.498Z,104177.34
2023-02-06T01:18:45.116Z,104173.06
2023-02-06T01:21:16.911Z,104172.03
2023-02-06T01:23:45.897Z,104173.28
2023-02-06T01:26:19.130Z,104179.84
2023-02-06T01:28:49.523Z,104179.88
2023-02-06T01:31:22.499Z,104186.47
2023-02-06T01:33:51.503Z,104187.28
2023-02-06T01:36:22.409Z,104183.00
2023-02-06T01:38:53.489Z,104168.84
2023-02-06T01:41:23.391Z,104177.66
2023-02-06T01:44:12.677Z,104174.38
2023-02-06T01:46:43.339Z,104181.13
2023-02-06T01:49:17.512Z,104182.78
2023-02-06T01:51:48.609Z,104184.03
2023-02-06T01:54:17.395Z,104187.94
2023-02-06T01:56:50.194Z,104186.13
2023-02-06T01:59:18.805Z,104174.81
2023-02-06T02:01:47.200Z,104193.06
2023-02-06T02:04:22.908Z,104189.97
2023-02-06T02:07:04.628Z,104192.59
2023-02-06T02:09:33.539Z,104191.97
2023-02-06T02:12:02.008Z,104182.31
2023-02-06T02:14:31.128Z,104178.94
2023-02-06T02:17:16.144Z,104177.88
2023-02-06T02:20:17.210Z,104180.56
2023-02-06T02:23:03.240Z,104179.38
2023-02-06T02:26:09.254Z,104177.72
2023-02-06T02:29:23.578Z,104166.78
2023-02-06T02:32:37.888Z,104175.97
2023-02-06T02:35:25.514Z,104179.09
2023-02-06T02:38:04.949Z,104176.47
2023-02-06T02:40:43.568Z,104173.22
2023-02-06T02:43:25.388Z,104166.66
2023-02-06T02:45:58.850Z,104153.47
2023-02-06T02:48:31.637Z,104159.34
2023-02-06T02:51:02.230Z,104161.56
2023-02-06T02:53:30.539Z,104158.72
2023-02-06T02:56:00.020Z,104158.31
2023-02-06T02:58:34.736Z,104155.44
2023-02-06T03:01:09.107Z,104150.94
2023-02-06T03:03:41.720Z,104147.81
2023-02-06T03:06:38.569Z,104144.41
2023-02-06T03:09:14.802Z,104137.84
2023-02-06T03:11:50.715Z,104139.69
2023-02-06T03:14:30.158Z,104141.28
2023-02-06T03:17:05.830Z,104139.41
2023-02-06T03:19:40.365Z,104134.13
2023-02-06T03:22:10.753Z,104137.44
2023-02-06T03:24:41.394Z,104142.44
2023-02-06T03:27:15.369Z,104143.56
2023-02-06T03:29:44.634Z,104145.22
2023-02-06T03:32:17.921Z,104140.75
2023-02-06T03:34:54.702Z,104131.56
2023-02-06T03:37:26.034Z,104136.34
2023-02-06T03:39:54.617Z,104146.44
2023-02-06T03:42:23.896Z,104145.22
2023-02-06T03:45:00.791Z,104139.72
2023-02-06T03:47:30.897Z,104149.38
2023-02-06T03:50:01.610Z,104146.13
2023-02-06T03:52:38.461Z,104158.66
2023-02-06T03:55:14.755Z,104150.84
2023-02-06T03:57:46.178Z,104165.22
2023-02-06T04:00:16.194Z,104167.09
2023-02-06T04:02:47.554Z,104149.88
2023-02-06T04:05:17.086Z,104166.09
2023-02-06T04:07:47.114Z,104164.66
2023-02-06T04:10:15.745Z,104153.78
2023-02-06T04:12:44.097Z,104152.31
2023-02-06T04:15:12.544Z,104159.53
2023-02-06T04:17:57.548Z,104162.59
2023-02-06T04:20:27.651Z,104151.31
2023-02-06T04:22:57.591Z,104148.03
2023-02-06T04:25:26.130Z,104150.28
2023-02-06T04:27:54.635Z,104138.97
2023-02-06T04:30:22.968Z,104143.09
2023-02-06T04:32:51.363Z,104140.00
2023-02-06T04:35:19.914Z,104148.63
2023-02-06T04:37:48.218Z,104148.84
2023-02-06T04:40:18.472Z,104159.13
2023-02-06T04:42:46.769Z,104153.34
2023-02-06T04:45:15.697Z,104154.56
2023-02-06T04:47:44.000Z,104158.88
2023-02-06T04:50:12.483Z,104149.84
2023-02-06T04:52:40.764Z,104145.75
2023-02-06T04:55:10.128Z,104154.97
2023-02-06T04:57:40.121Z,104165.66
2023-02-06T05:00:10.790Z,104162.16
2023-02-06T05:02:39.799Z,104165.66
2023-02-06T05:05:10.498Z,104171.81
2023-02-06T05:07:39.090Z,104170.81
2023-02-06T05:10:09.098Z,104172.44
2023-02-06T05:12:39.197Z,104180.47
2023-02-06T05:15:09.228Z,104180.47
2023-02-06T05:17:37.839Z,104182.94
2023-02-06T05:20:07.916Z,104174.31
2023-02-06T05:22:36.580Z,104170.81
2023-02-06T05:25:05.058Z,104168.16
2023-02-06T05:27:33.365Z,104162.81
2023-02-06T05:30:03.132Z,104174.09
2023-02-06T05:32:31.553Z,104163.19
2023-02-06T05:34:59.956Z,104187.66
2023-02-06T05:37:28.340Z,104188.47
2023-02-06T05:39:58.047Z,104194.88
2023-02-06T05:42:27.893Z,104197.31
2023-02-06T05:44:56.461Z,104205.94
2023-02-06T05:47:26.682Z,104207.59
2023-02-06T05:49:55.037Z,104198.53
2023-02-06T05:52:23.412Z,104180.66
2023-02-06T05:54:51.724Z,104180.47
2023-02-06T05:57:20.318Z,104178.38
2023-02-06T05:59:48.874Z,104162.97
2023-02-06T06:02:17.490Z,104170.97
2023-02-06T06:04:47.412Z,104174.06
2023-02-06T06:07:15.749Z,104177.78
2023-02-06T06:09:44.298Z,104180.25
2023-02-06T06:12:12.617Z,104173.03
2023-02-06T06:14:40.910Z,104167.28
2023-02-06T06:17:09.361Z,104169.75
2023-02-06T06:19:37.676Z,104177.56
2023-02-06T06:22:07.402Z,104172.66
2023-02-06T06:24:35.717Z,104175.09
2023-02-06T06:27:04.235Z,104161.53
2023-02-06T06:29:32.538Z,104165.81
2023-02-06T06:32:00.828Z,104159.63
2023-02-06T06:34:29.288Z,104156.19
2023-02-06T06:36:57.623Z,104164.81
2023-02-06T06:39:27.447Z,104172.66
2023-02-06T06:41:55.748Z,104177.38
2023-02-06T06:44:24.517Z,104174.69
2023-02-06T06:46:53.347Z,104171.81
2023-02-06T06:49:21.665Z,104173.88
2023-02-06T06:51:49.938Z,104177.56
2023-02-06T06:54:19.576Z,104176.16
2023-02-06T06:56:49.273Z,104170.16
2023-02-06T06:59:17.704Z,104160.72
2023-02-06T07:01:46.229Z,104149.59
2023-02-06T07:04:14.633Z,104164.81
2023-02-06T07:06:42.888Z,104161.53
2023-02-06T07:09:11.209Z,104166.88
2023-02-06T07:11:39.733Z,104160.50
2023-02-06T07:14:10.220Z,104154.53
2023-02-06T07:16:38.760Z,104157.44
2023-02-06T07:19:07.553Z,104148.38
2023-02-06T07:21:35.986Z,104143.03
2023-02-06T07:24:04.597Z,104136.66
2023-02-06T07:26:32.998Z,104136.66
2023-02-06T07:29:01.396Z,104132.56
2023-02-06T07:31:31.170Z,104126.19
2023-02-06T07:33:59.483Z,104132.13
2023-02-06T07:36:27.836Z,104135.63
2023-02-06T07:38:56.128Z,104145.91
2023-02-06T07:41:24.611Z,104134.78
2023-02-06T07:43:54.264Z,104134.34
2023-02-06T07:46:22.640Z,104141.53
2023-02-06T07:48:52.424Z,104134.75
2023-02-06T07:51:20.934Z,104140.69
2023-02-06T07:53:50.160Z,104133.09
2023-02-06T07:56:20.674Z,104142.16
2023-02-06T07:58:52.677Z,104141.31
2023-02-06T08:01:21.357Z,104133.91
2023-02-06T08:03:52.372Z,104122.59
2023-02-06T08:06:24.252Z,104125.66
2023-02-06T08:08:55.534Z,104125.25
2023-02-06T08:11:26.137Z,104134.91
2023-02-06T08:13:54.513Z,104137.56
2023-02-06T08:16:24.520Z,104133.47
2023-02-06T08:18:54.485Z,104140.47
2023-02-06T08:21:25.792Z,104146.19
2023-02-06T08:23:57.996Z,104127.63
2023-02-06T08:26:28.461Z,104131.31
2023-02-06T08:28:59.443Z,104135.41
2023-02-06T08:31:31.099Z,104130.03
2023-02-06T08:34:00.916Z,104135.81
2023-02-06T08:36:31.889Z,104133.72
2023-02-06T08:39:01.626Z,104129.59
2023-02-06T08:41:33.248Z,104119.28
2023-02-06T08:44:04.573Z,104122.53
2023-02-06T08:46:34.216Z,104130.53
2023-02-06T08:49:06.645Z,104129.72
2023-02-06T08:51:36.816Z,104132.41
2023-02-06T08:54:09.278Z,104126.00
2023-02-06T08:56:39.340Z,104127.22
2023-02-06T08:59:09.113Z,104130.91
2023-02-06T09:01:38.697Z,104129.47
2023-02-06T09:04:11.114Z,104130.69
2023-02-06T09:06:42.587Z,104133.38
2023-02-06T09:09:13.333Z,104133.97
2023-02-06T09:11:41.931Z,104129.66
2023-02-06T09:14:14.747Z,104129.81
2023-02-06T09:16:43.130Z,104122.78
2023-02-06T09:19:13.124Z,104119.88
2023-02-06T09:21:41.844Z,104125.00
2023-02-06T09:24:10.934Z,104110.78
2023-02-06T09:26:58.153Z,104114.06
2023-02-06T09:29:28.980Z,104123.09
2023-02-06T09:31:58.353Z,104117.69
2023-02-06T09:34:28.377Z,104121.56
2023-02-06T09:36:57.797Z,104115.34
2023-02-06T09:39:27.570Z,104124.56
2023-02-06T09:42:00.475Z,104121.25
2023-02-06T09:44:34.445Z,104125.69
2023-02-06T09:47:08.514Z,104129.34
2023-02-06T09:49:43.683Z,104128.25
2023-02-06T09:52:40.176Z,104142.66
2023-02-06T09:55:20.372Z,104147.31
2023-02-06T09:57:57.487Z,104138.25
2023-02-06T10:00:41.612Z,104128.94
2023-02-06T10:03:37.449Z,104149.50
2023-02-06T10:06:19.429Z,104132.75
2023-02-06T10:08:59.031Z,104138.47
2023-02-06T10:11:39.685Z,104146.06
2023-02-06T10:14:19.024Z,104144.38
2023-02-06T10:16:50.485Z,104158.53
2023-02-06T10:19:39.169Z,104153.75
2023-02-06T10:22:15.218Z,104159.13
2023-02-06T10:25:08.849Z,104167.16
2023-02-06T10:27:39.091Z,104155.75
2023-02-06T10:30:08.412Z,104151.13
2023-02-06T10:32:47.724Z,104155.03
2023-02-06T10:35:30.854Z,104153.38
2023-02-06T10:38:50.277Z,104153.75
2023-02-06T10:41:32.688Z,104157.00
2023-02-06T10:44:12.415Z,104145.22
2023-02-06T10:46:48.311Z,104151.41
2023-02-06T10:49:30.568Z,104158.66
2023-02-06T10:52:02.165Z,104149.78
2023-02-06T10:54:38.317Z,104151.56
2023-02-06T10:57:17.608Z,104149.25
2023-02-06T10:59:53.576Z,104140.53
2023-02-06T11:02:26.960Z,104141.69
2023-02-06T11:05:11.760Z,104150.09
2023-02-06T11:07:43.653Z,104153.38
2023-02-06T11:10:18.634Z,104146.38
2023-02-06T11:12:52.700Z,104142.22
2023-02-06T11:15:32.577Z,104148.78
2023-02-06T11:18:03.763Z,104146.66
2023-02-06T11:20:35.770Z,104146.41
2023-02-06T11:23:20.739Z,104145.38
2023-02-06T11:26:05.377Z,104139.56
2023-02-06T11:28:35.414Z,104124.84
2023-02-06T11:31:07.324Z,104131.66
2023-02-06T11:33:42.791Z,104139.09
2023-02-06T11:36:27.853Z,104127.91
2023-02-06T11:39:00.375Z,104123.13
2023-02-06T11:41:31.306Z,104116.47
2023-02-06T11:44:06.470Z,104106.59
2023-02-06T11:46:36.352Z,104106.31
2023-02-06T11:49:25.771Z,104106.66
2023-02-06T11:51:56.493Z,104087.56
2023-02-06T11:54:29.251Z,104085.09
2023-02-06T11:57:04.323Z,104089.56
2023-02-06T11:59:35.064Z,104094.22
2023-02-06T12:02:21.956Z,104087.09
2023-02-06T12:04:51.684Z,104085.94
2023-02-06T12:07:30.357Z,104085.81
2023-02-06T12:09:58.747Z,104080.06
2023-02-06T12:12:33.453Z,104080.06
2023-02-06T12:15:33.099Z,104075.28
2023-02-06T12:18:02.423Z,104075.38
2023-02-06T12:20:34.957Z,104083.00
2023-02-06T12:23:08.853Z,104078.19
2023-02-06T12:25:43.235Z,104081.50
2023-02-06T12:28:18.949Z,104084.16
2023-02-06T12:30:55.691Z,104084.16
2023-02-06T12:33:34.052Z,104077.72
2023-02-06T12:36:07.722Z,104069.78
2023-02-06T12:38:44.531Z,104076.28
2023-02-06T12:41:39.276Z,104069.94
2023-02-06T12:44:24.246Z,104056.88
2023-02-06T12:46:59.906Z,104056.13
2023-02-06T12:49:35.798Z,104052.72
2023-02-06T12:52:10.871Z,104050.31
2023-02-06T12:54:46.388Z,104051.81
2023-02-06T12:57:20.327Z,104053.00
2023-02-06T13:00:23.472Z,104040.38
2023-02-06T13:03:22.446Z,104042.66
2023-02-06T13:05:54.889Z,104037.72
2023-02-06T13:08:29.029Z,104026.69
2023-02-06T13:11:04.623Z,104036.16
2023-02-06T13:13:37.625Z,104020.13
2023-02-06T13:16:09.063Z,104019.06
2023-02-06T13:19:05.329Z,104017.97
2023-02-06T13:21:36.802Z,104009.91
2023-02-06T13:24:18.268Z,104003.25
2023-02-06T13:27:13.172Z,104001.47
2023-02-06T13:29:45.336Z,104007.97
2023-02-06T13:32:46.341Z,104004.72
2023-02-06T13:35:25.330Z,104001.94
2023-02-06T13:38:27.942Z,104007.88
2023-02-06T13:41:29.222Z,104003.41
2023-02-06T13:44:02.014Z,103997.06
2023-02-06T13:47:10.804Z,103996.34
2023-02-06T13:50:29.803Z,104003.34
2023-02-06T13:53:43.154Z,104007.09
2023-02-06T13:56:33.122Z,104004.66
2023-02-06T13:59:06.515Z,103999.03
2023-02-06T14:01:35.164Z,104003.06
2023-02-06T14:04:08.258Z,103997.22
2023-02-06T14:06:55.173Z,104006.47
2023-02-06T14:09:40.068Z,103995.09
2023-02-06T14:12:35.595Z,104000.22
2023-02-06T14:15:26.924Z,103994.84
2023-02-06T14:18:07.257Z,103995.91
2023-02-06T14:20:48.750Z,103986.78
2023-02-06T14:23:32.675Z,103990.06
2023-02-06T14:26:17.916Z,103989.56
2023-02-06T14:28:56.625Z,103993.81
2023-02-06T14:31:46.749Z,103996.00
2023-02-06T14:34:35.957Z,103993.84
2023-02-06T14:37:34.659Z,103987.19
2023-02-06T14:40:13.033Z,103992.31
2023-02-06T14:42:44.454Z,103995.56
2023-02-06T14:45:26.578Z,103987.50
2023-02-06T14:47:59.050Z,103984.81
2023-02-06T14:50:30.594Z,103985.06
2023-02-06T14:53:04.173Z,103989.63
2023-02-06T14:55:41.007Z,103991.16
2023-02-06T14:58:21.458Z,103991.75
2023-02-06T15:00:50.046Z,103976.16
2023-02-06T15:03:23.388Z,103979.41
2023-02-06T15:06:02.093Z,103984.81
2023-02-06T15:08:32.573Z,103983.19
2023-02-06T15:11:08.698Z,103980.22
2023-02-06T15:13:37.876Z,103974.84
2023-02-06T15:16:10.006Z,103979.78
2023-02-06T15:18:38.857Z,103973.03
2023-02-06T15:21:09.834Z,103969.81
2023-02-06T15:23:55.516Z,103974.13
2023-02-06T15:26:35.597Z,103965.50
2023-02-06T15:29:07.074Z,103976.25
2023-02-06T15:31:36.056Z,103981.41
2023-02-06T15:34:04.544Z,103968.19
2023-02-06T15:36:37.206Z,103969.25
2023-02-06T15:39:09.795Z,103981.66
2023-02-06T15:41:42.513Z,103991.84
2023-02-06T15:44:27.795Z,103985.63
2023-02-06T15:46:58.022Z,103986.94
2023-02-06T15:49:41.054Z,103993.63
2023-02-06T15:52:12.424Z,103996.53
2023-02-06T15:54:45.031Z,103987.44
2023-02-06T15:57:29.646Z,103983.69
2023-02-06T15:59:58.468Z,103974.19
2023-02-06T16:02:34.349Z,103983.09
2023-02-06T16:05:04.235Z,103975.28
2023-02-06T16:07:35.947Z,103963.72
2023-02-06T16:10:21.684Z,103969.63
2023-02-06T16:12:52.746Z,103956.44
2023-02-06T16:15:27.851Z,103947.56
2023-02-06T16:17:58.374Z,103948.88
2023-02-06T16:20:33.626Z,103945.38
2023-02-06T16:23:27.250Z,103935.06
2023-02-06T16:26:07.381Z,103947.97
2023-02-06T16:28:48.484Z,103941.44
2023-02-06T16:31:17.122Z,103941.94
2023-02-06T16:33:49.267Z,103940.78
2023-02-06T16:36:19.975Z,103939.41
2023-02-06T16:39:02.723Z,103940.97
2023-02-06T16:41:34.692Z,103945.44
2023-02-06T16:44:08.389Z,103944.44
2023-02-06T16:46:36.689Z,103936.53
2023-02-06T16:49:12.866Z,103937.59
2023-02-06T16:51:43.451Z,103937.66
2023-02-06T16:54:20.244Z,103939.69
2023-02-06T16:56:49.206Z,103942.16
2023-02-06T16:59:18.977Z,103949.00
2023-02-06T17:01:47.475Z,103940.63
2023-02-06T17:04:16.156Z,103937.75
2023-02-06T17:06:44.594Z,103936.25
2023-02-06T17:09:15.241Z,103941.97
2023-02-06T17:11:43.560Z,103945.69
2023-02-06T17:14:12.524Z,103943.50
2023-02-06T17:16:42.264Z,103939.38
2023-02-06T17:19:12.437Z,103931.25
2023-02-06T17:21:40.754Z,103931.94
2023-02-06T17:24:15.089Z,103933.66
2023-02-06T17:26:43.375Z,103939.25
2023-02-06T17:29:15.455Z,103918.13
2023-02-06T17:31:45.159Z,103933.63
2023-02-06T17:34:13.448Z,103935.25
2023-02-06T17:36:43.190Z,103944.81
2023-02-06T17:39:13.940Z,103946.19
2023-02-06T17:41:42.256Z,103943.13
2023-02-06T17:44:11.660Z,103944.41
2023-02-06T17:46:40.222Z,103953.97
2023-02-06T17:49:10.009Z,103943.72
2023-02-06T17:51:40.267Z,103945.19
2023-02-06T17:54:09.165Z,103945.94
2023-02-06T17:56:37.937Z,103936.19
2023-02-06T17:59:06.287Z,103942.88
2023-02-06T18:01:35.441Z,103941.25
2023-02-06T18:04:04.200Z,103940.84
2023-02-06T18:06:36.422Z,103935.66
2023-02-06T18:09:05.594Z,103932.69
2023-02-06T18:11:35.767Z,103930.31
2023-02-06T18:14:04.360Z,103930.88
2023-02-06T18:16:33.591Z,103938.22
2023-02-06T18:19:02.211Z,103931.84
2023-02-06T18:21:31.452Z,103929.53
2023-02-06T18:24:01.175Z,103923.94
2023-02-06T18:26:29.516Z,103933.03
2023-02-06T18:28:57.815Z,103934.50
2023-02-06T18:31:30.180Z,103927.19
2023-02-06T18:33:59.822Z,103931.75
2023-02-06T18:36:28.399Z,103928.69
2023-02-06T18:38:57.634Z,103943.56
2023-02-06T18:41:44.814Z,103937.22
2023-02-06T18:44:13.897Z,103933.94
2023-02-06T18:46:48.326Z,103938.88
2023-02-06T18:49:16.672Z,103942.94
2023-02-06T18:51:45.055Z,103935.16
2023-02-06T18:54:13.579Z,103938.41
2023-02-06T18:56:44.051Z,103943.34
2023-02-06T18:59:12.394Z,103933.69
2023-02-06T19:01:40.979Z,103934.72
2023-02-06T19:04:09.354Z,103929.38
2023-02-06T19:06:42.244Z,103934.72
2023-02-06T19:09:12.279Z,103939.59
2023-02-06T19:11:43.652Z,103925.97
2023-02-06T19:14:17.398Z,103933.53
2023-02-06T19:16:48.047Z,103928.13
2023-02-06T19:19:16.787Z,103938.22
2023-02-06T19:21:45.904Z,103930.63
2023-02-06T19:24:16.139Z,103928.34
2023-02-06T19:26:46.304Z,103921.28
2023-02-06T19:29:19.313Z,103916.75
2023-02-06T19:31:52.620Z,103918.16
2023-02-06T19:34:21.025Z,103924.72
2023-02-06T19:36:49.369Z,103917.44
2023-02-06T19:39:17.751Z,103926.22
2023-02-06T19:41:47.474Z,103928.59
2023-02-06T19:44:16.138Z,103934.91
2023-02-06T19:46:44.515Z,103939.38
2023-02-06T19:49:13.073Z,103934.44
2023-02-06T19:51:45.486Z,103938.88
2023-02-06T19:54:14.268Z,103938.56
2023-02-06T19:56:46.683Z,103947.34
2023-02-06T19:59:19.082Z,103945.16
2023-02-06T20:01:49.555Z,103936.84
2023-02-06T20:04:18.826Z,103944.00
2023-02-06T20:06:50.039Z,103950.88
2023-02-06T20:09:20.517Z,103949.16
2023-02-06T20:11:50.967Z,103954.22
2023-02-06T20:14:20.528Z,103948.38
2023-02-06T20:16:50.023Z,103953.63
2023-02-06T20:19:21.765Z,103944.09
2023-02-06T20:21:52.902Z,103949.84
2023-02-06T20:24:22.707Z,103945.88
2023-02-06T20:26:56.220Z,103948.31
2023-02-06T20:29:27.776Z,103950.44
2023-02-06T20:31:57.336Z,103952.72
2023-02-06T20:34:27.731Z,103943.28
2023-02-06T20:36:57.059Z,103949.06
2023-02-06T20:39:26.572Z,103950.38
2023-02-06T20:41:56.371Z,103945.47
2023-02-06T20:44:24.765Z,103943.25
2023-02-06T20:46:53.136Z,103933.81
2023-02-06T20:49:23.864Z,103935.69
2023-02-06T20:51:54.610Z,103925.97
2023-02-06T20:54:23.787Z,103928.88
2023-02-06T20:56:52.870Z,103926.22
2023-02-06T20:59:23.087Z,103919.44
2023-02-06T21:01:51.661Z,103925.84
2023-02-06T21:04:21.224Z,103920.69
2023-02-06T21:06:51.444Z,103919.06
2023-02-06T21:09:20.382Z,103925.81
2023-02-06T21:11:51.003Z,103923.66
2023-02-06T21:14:21.946Z,103925.81
2023-02-06T21:16:50.788Z,103926.81
2023-02-06T21:19:22.333Z,103928.63
2023-02-06T21:21:50.930Z,103927.28
2023-02-06T21:24:19.964Z,103927.13
2023-02-06T21:26:48.574Z,103926.94
2023-02-06T21:29:17.625Z,103924.72
2023-02-06T21:31:47.575Z,103914.47
2023-02-06T21:34:19.256Z,103919.06
2023-02-06T21:36:48.679Z,103917.44
2023-02-06T21:39:22.756Z,103917.03
2023-02-06T21:41:53.800Z,103922.03
2023-02-06T21:44:23.822Z,103918.16
2023-02-06T21:46:55.902Z,103912.88
2023-02-06T21:49:25.679Z,103911.25
2023-02-06T21:51:56.116Z,103908.19
2023-02-06T21:54:24.852Z,103891.53
2023-02-06T21:56:53.320Z,103895.03
2023-02-06T21:59:21.725Z,103896.88
2023-02-06T22:01:50.266Z,103889.91
2023-02-06T22:04:19.975Z,103893.38
2023-02-06T22:06:49.151Z,103892.19
2023-02-06T22:09:18.982Z,103908.34
2023-02-06T22:11:47.764Z,103899.63
2023-02-06T22:14:18.270Z,103900.28
2023-02-06T22:16:47.604Z,103896.69
2023-02-06T22:19:17.694Z,103897.56
2023-02-06T22:21:47.403Z,103898.66
2023-02-06T22:24:15.973Z,103893.22
2023-02-06T22:26:44.877Z,103898.22
2023-02-06T22:29:16.148Z,103883.66
2023-02-06T22:31:45.714Z,103890.44
2023-02-06T22:34:17.692Z,103893.78
2023-02-06T22:36:47.922Z,103895.88
2023-02-06T22:39:16.909Z,103895.28
2023-02-06T22:41:47.121Z,103894.63
2023-02-06T22:44:17.328Z,103898.34
2023-02-06T22:46:48.169Z,103886.88
2023-02-06T22:49:16.577Z,103885.22
2023-02-06T22:51:46.495Z,103890.56
2023-02-06T22:54:15.443Z,103880.47
2023-02-06T22:56:45.087Z,103883.56
2023-02-06T22:59:17.880Z,103883.53
2023-02-06T23:01:49.037Z,103892.09
2023-02-06T23:04:20.050Z,103897.03
2023-02-06T23:06:50.194Z,103903.19
2023-02-06T23:09:22.084Z,103905.25
2023-02-06T23:11:51.703Z,103913.47
2023-02-06T23:14:21.180Z,103911.44
2023-02-06T23:16:49.762Z,103919.81
2023-02-06T23:19:20.203Z,103909.75
2023-02-06T23:21:51.856Z,103911.78
2023-02-06T23:24:20.702Z,103913.84
2023-02-06T23:26:51.903Z,103912.22
2023-02-06T23:29:21.958Z,103908.59
2023-02-06T23:31:51.542Z,103907.78
2023-02-06T23:34:23.666Z,103923.16
2023-02-06T23:36:53.876Z,103915.16
2023-02-06T23:39:22.559Z,103913.13
2023-02-06T23:41:51.067Z,103902.00
2023-02-06T23:44:20.019Z,103901.38
2023-02-06T23:46:48.902Z,103893.97
2023-02-06T23:49:17.274Z,103904.00
2023-02-06T23:51:45.641Z,103905.44
2023-02-06T23:54:15.453Z,103901.22
2023-02-06T23:56:43.755Z,103901.25
2023-02-06T23:59:12.841Z,103908.66
